sensor_id;sensor_type;location;lat;lon;timestamp;P1;durP1;ratioP1;P2;durP2;ratioP2
1346;SDS011;667;48.796;9.480;2023-04-15T00:01:05;5.30;;;2.90;;
1346;SDS011;667;48.796;9.480;2023-04-15T00:03:30;4.30;;;2.70;;
1346;SDS011;667;48.796;9.480;2023-04-15T00:05:58;3.10;;;2.45;;
1346;SDS011;667;48.796;9.480;2023-04-15T00:08:24;7.50;;;2.20;;
1346;SDS011;667;48.796;9.480;2023-04-15T00:10:49;3.57;;;2.17;;
1346;SDS011;667;48.796;9.480;2023-04-15T00:13:15;2.87;;;2.60;;
1346;SDS011;667;48.796;9.480;2023-04-15T00:15:40;2.70;;;2.50;;
1346;SDS011;667;48.796;9.480;2023-04-15T00:18:07;3.05;;;2.70;;
1346;SDS011;667;48.796;9.480;2023-04-15T00:20:33;3.53;;;2.50;;
1346;SDS011;667;48.796;9.480;2023-04-15T00:22:59;3.20;;;2.28;;
1346;SDS011;667;48.796;9.480;2023-04-15T00:25:26;2.40;;;2.20;;
1346;SDS011;667;48.796;9.480;2023-04-15T00:27:52;2.73;;;2.07;;
1346;SDS011;667;48.796;9.480;2023-04-15T00:30:17;2.43;;;2.23;;
1346;SDS011;667;48.796;9.480;2023-04-15T00:32:43;3.57;;;2.60;;
1346;SDS011;667;48.796;9.480;2023-04-15T00:35:10;2.33;;;2.13;;
1346;SDS011;667;48.796;9.480;2023-04-15T00:37:36;3.05;;;2.25;;
1346;SDS011;667;48.796;9.480;2023-04-15T00:40:02;2.70;;;2.40;;
1346;SDS011;667;48.796;9.480;2023-04-15T00:42:30;6.30;;;2.97;;
1346;SDS011;667;48.796;9.480;2023-04-15T00:44:56;4.80;;;2.40;;
1346;SDS011;667;48.796;9.480;2023-04-15T00:47:21;3.57;;;2.20;;
1346;SDS011;667;48.796;9.480;2023-04-15T00:49:47;2.70;;;2.20;;
1346;SDS011;667;48.796;9.480;2023-04-15T00:52:13;4.43;;;3.33;;
1346;SDS011;667;48.796;9.480;2023-04-15T00:54:38;3.77;;;2.37;;
1346;SDS011;667;48.796;9.480;2023-04-15T00:57:05;10.10;;;3.50;;
1346;SDS011;667;48.796;9.480;2023-04-15T00:59:32;3.38;;;2.70;;
1346;SDS011;667;48.796;9.480;2023-04-15T01:01:58;4.13;;;2.45;;
1346;SDS011;667;48.796;9.480;2023-04-15T01:04:24;3.60;;;2.90;;
1346;SDS011;667;48.796;9.480;2023-04-15T01:06:50;2.83;;;2.60;;
1346;SDS011;667;48.796;9.480;2023-04-15T01:09:16;3.05;;;2.78;;
1346;SDS011;667;48.796;9.480;2023-04-15T01:11:42;3.53;;;2.30;;
1346;SDS011;667;48.796;9.480;2023-04-15T01:14:08;2.70;;;2.50;;
1346;SDS011;667;48.796;9.480;2023-04-15T01:16:35;2.83;;;2.50;;
1346;SDS011;667;48.796;9.480;2023-04-15T01:19:04;2.70;;;2.50;;
1346;SDS011;667;48.796;9.480;2023-04-15T01:21:33;3.65;;;2.47;;
1346;SDS011;667;48.796;9.480;2023-04-15T01:24:01;3.08;;;2.78;;
1346;SDS011;667;48.796;9.480;2023-04-15T01:26:29;2.90;;;2.63;;
1346;SDS011;667;48.796;9.480;2023-04-15T01:28:54;3.70;;;2.87;;
1346;SDS011;667;48.796;9.480;2023-04-15T01:31:20;3.83;;;3.33;;
1346;SDS011;667;48.796;9.480;2023-04-15T01:33:46;3.50;;;2.50;;
1346;SDS011;667;48.796;9.480;2023-04-15T01:36:11;2.50;;;2.30;;
1346;SDS011;667;48.796;9.480;2023-04-15T01:38:37;2.80;;;2.50;;
1346;SDS011;667;48.796;9.480;2023-04-15T01:41:03;2.57;;;2.37;;
1346;SDS011;667;48.796;9.480;2023-04-15T01:43:30;6.30;;;3.00;;
1346;SDS011;667;48.796;9.480;2023-04-15T01:45:56;3.40;;;2.43;;
1346;SDS011;667;48.796;9.480;2023-04-15T01:48:22;4.73;;;2.83;;
1346;SDS011;667;48.796;9.480;2023-04-15T01:50:47;2.97;;;2.60;;
1346;SDS011;667;48.796;9.480;2023-04-15T01:53:13;2.50;;;2.30;;
1346;SDS011;667;48.796;9.480;2023-04-15T01:55:39;4.60;;;3.15;;
1346;SDS011;667;48.796;9.480;2023-04-15T01:58:05;3.13;;;2.93;;
1346;SDS011;667;48.796;9.480;2023-04-15T02:00:31;3.50;;;2.60;;
1346;SDS011;667;48.796;9.480;2023-04-15T02:02:57;3.57;;;2.90;;
1346;SDS011;667;48.796;9.480;2023-04-15T02:05:23;2.80;;;2.50;;
1346;SDS011;667;48.796;9.480;2023-04-15T02:07:49;2.63;;;2.42;;
1346;SDS011;667;48.796;9.480;2023-04-15T02:10:15;3.83;;;2.83;;
1346;SDS011;667;48.796;9.480;2023-04-15T02:12:41;2.97;;;2.30;;
1346;SDS011;667;48.796;9.480;2023-04-15T02:15:06;2.83;;;2.33;;
1346;SDS011;667;48.796;9.480;2023-04-15T02:17:33;2.90;;;2.60;;
1346;SDS011;667;48.796;9.480;2023-04-15T02:19:59;4.55;;;2.85;;
1346;SDS011;667;48.796;9.480;2023-04-15T02:22:25;3.80;;;2.27;;
1346;SDS011;667;48.796;9.480;2023-04-15T02:24:51;2.97;;;2.70;;
1346;SDS011;667;48.796;9.480;2023-04-15T02:27:17;3.77;;;2.60;;
1346;SDS011;667;48.796;9.480;2023-04-15T02:29:43;2.87;;;2.57;;
1346;SDS011;667;48.796;9.480;2023-04-15T02:32:10;2.35;;;2.15;;
1346;SDS011;667;48.796;9.480;2023-04-15T02:34:36;2.55;;;2.22;;
1346;SDS011;667;48.796;9.480;2023-04-15T02:37:05;2.90;;;2.60;;
1346;SDS011;667;48.796;9.480;2023-04-15T02:39:31;2.50;;;2.30;;
1346;SDS011;667;48.796;9.480;2023-04-15T02:41:57;3.13;;;2.25;;
1346;SDS011;667;48.796;9.480;2023-04-15T02:44:24;2.80;;;2.30;;
1346;SDS011;667;48.796;9.480;2023-04-15T02:46:51;6.38;;;2.70;;
1346;SDS011;667;48.796;9.480;2023-04-15T02:49:18;3.00;;;2.70;;
1346;SDS011;667;48.796;9.480;2023-04-15T02:51:44;4.63;;;2.75;;
1346;SDS011;667;48.796;9.480;2023-04-15T02:54:13;5.57;;;2.70;;
1346;SDS011;667;48.796;9.480;2023-04-15T02:56:46;4.00;;;2.63;;
1346;SDS011;667;48.796;9.480;2023-04-15T02:59:12;6.67;;;2.73;;
1346;SDS011;667;48.796;9.480;2023-04-15T03:01:38;3.00;;;2.80;;
1346;SDS011;667;48.796;9.480;2023-04-15T03:04:03;2.77;;;2.40;;
1346;SDS011;667;48.796;9.480;2023-04-15T03:06:29;3.70;;;2.80;;
1346;SDS011;667;48.796;9.480;2023-04-15T03:08:55;2.77;;;2.57;;
1346;SDS011;667;48.796;9.480;2023-04-15T03:11:21;2.73;;;2.53;;
1346;SDS011;667;48.796;9.480;2023-04-15T03:13:46;3.77;;;2.53;;
1346;SDS011;667;48.796;9.480;2023-04-15T03:16:12;3.63;;;3.30;;
1346;SDS011;667;48.796;9.480;2023-04-15T03:18:37;2.60;;;2.40;;
1346;SDS011;667;48.796;9.480;2023-04-15T03:21:03;3.00;;;2.70;;
1346;SDS011;667;48.796;9.480;2023-04-15T03:23:32;3.30;;;2.63;;
1346;SDS011;667;48.796;9.480;2023-04-15T03:26:00;3.83;;;2.97;;
1346;SDS011;667;48.796;9.480;2023-04-15T03:28:26;3.05;;;2.70;;
1346;SDS011;667;48.796;9.480;2023-04-15T03:30:53;2.53;;;2.33;;
1346;SDS011;667;48.796;9.480;2023-04-15T03:33:19;3.77;;;2.80;;
1346;SDS011;667;48.796;9.480;2023-04-15T03:35:44;4.60;;;3.23;;
1346;SDS011;667;48.796;9.480;2023-04-15T03:38:10;3.30;;;2.43;;
1346;SDS011;667;48.796;9.480;2023-04-15T03:40:36;2.93;;;2.60;;
1346;SDS011;667;48.796;9.480;2023-04-15T03:43:02;5.35;;;2.95;;
1346;SDS011;667;48.796;9.480;2023-04-15T03:45:28;2.93;;;2.73;;
1346;SDS011;667;48.796;9.480;2023-04-15T03:47:53;2.87;;;2.63;;
1346;SDS011;667;48.796;9.480;2023-04-15T03:50:19;3.87;;;2.90;;
1346;SDS011;667;48.796;9.480;2023-04-15T03:52:45;2.83;;;2.30;;
1346;SDS011;667;48.796;9.480;2023-04-15T03:55:10;4.20;;;3.00;;
1346;SDS011;667;48.796;9.480;2023-04-15T03:57:36;3.27;;;2.70;;
1346;SDS011;667;48.796;9.480;2023-04-15T04:00:03;4.05;;;3.10;;
1346;SDS011;667;48.796;9.480;2023-04-15T04:02:31;4.40;;;3.05;;
1346;SDS011;667;48.796;9.480;2023-04-15T04:04:57;2.67;;;2.43;;
1346;SDS011;667;48.796;9.480;2023-04-15T04:07:22;3.00;;;2.70;;
1346;SDS011;667;48.796;9.480;2023-04-15T04:09:49;3.20;;;2.33;;
1346;SDS011;667;48.796;9.480;2023-04-15T04:12:14;5.20;;;3.17;;
1346;SDS011;667;48.796;9.480;2023-04-15T04:14:40;3.77;;;3.30;;
1346;SDS011;667;48.796;9.480;2023-04-15T04:17:06;2.90;;;2.67;;
1346;SDS011;667;48.796;9.480;2023-04-15T04:19:32;4.65;;;3.22;;
1346;SDS011;667;48.796;9.480;2023-04-15T04:21:57;4.40;;;3.13;;
1346;SDS011;667;48.796;9.480;2023-04-15T04:24:23;3.67;;;3.37;;
1346;SDS011;667;48.796;9.480;2023-04-15T04:26:49;5.47;;;3.03;;
1346;SDS011;667;48.796;9.480;2023-04-15T04:29:15;3.43;;;3.17;;
1346;SDS011;667;48.796;9.480;2023-04-15T04:31:40;4.50;;;3.97;;
1346;SDS011;667;48.796;9.480;2023-04-15T04:34:06;5.50;;;3.40;;
1346;SDS011;667;48.796;9.480;2023-04-15T04:36:31;5.73;;;3.07;;
1346;SDS011;667;48.796;9.480;2023-04-15T04:38:57;5.47;;;3.60;;
1346;SDS011;667;48.796;9.480;2023-04-15T04:41:23;4.07;;;3.30;;
1346;SDS011;667;48.796;9.480;2023-04-15T04:43:48;3.60;;;3.30;;
1346;SDS011;667;48.796;9.480;2023-04-15T04:46:14;3.87;;;3.50;;
1346;SDS011;667;48.796;9.480;2023-04-15T04:48:39;4.60;;;3.10;;
1346;SDS011;667;48.796;9.480;2023-04-15T04:51:05;5.20;;;4.03;;
1346;SDS011;667;48.796;9.480;2023-04-15T04:53:31;4.43;;;3.70;;
1346;SDS011;667;48.796;9.480;2023-04-15T04:55:57;4.43;;;3.33;;
1346;SDS011;667;48.796;9.480;2023-04-15T04:58:23;5.50;;;3.73;;
1346;SDS011;667;48.796;9.480;2023-04-15T05:00:48;7.90;;;3.77;;
1346;SDS011;667;48.796;9.480;2023-04-15T05:03:14;5.63;;;3.83;;
1346;SDS011;667;48.796;9.480;2023-04-15T05:05:40;5.57;;;4.03;;
1346;SDS011;667;48.796;9.480;2023-04-15T05:08:05;4.90;;;3.47;;
1346;SDS011;667;48.796;9.480;2023-04-15T05:10:31;4.07;;;3.60;;
1346;SDS011;667;48.796;9.480;2023-04-15T05:12:57;4.57;;;3.40;;
1346;SDS011;667;48.796;9.480;2023-04-15T05:15:22;4.10;;;3.67;;
1346;SDS011;667;48.796;9.480;2023-04-15T05:17:48;4.33;;;3.53;;
1346;SDS011;667;48.796;9.480;2023-04-15T05:20:14;4.20;;;3.80;;
1346;SDS011;667;48.796;9.480;2023-04-15T05:22:39;4.43;;;3.53;;
1346;SDS011;667;48.796;9.480;2023-04-15T05:25:05;7.73;;;3.67;;
1346;SDS011;667;48.796;9.480;2023-04-15T05:27:31;5.37;;;4.53;;
1346;SDS011;667;48.796;9.480;2023-04-15T05:29:57;5.13;;;3.73;;
1346;SDS011;667;48.796;9.480;2023-04-15T05:32:22;4.80;;;4.30;;
1346;SDS011;667;48.796;9.480;2023-04-15T05:34:48;4.27;;;3.83;;
1346;SDS011;667;48.796;9.480;2023-04-15T05:37:13;3.80;;;3.20;;
1346;SDS011;667;48.796;9.480;2023-04-15T05:39:39;6.27;;;4.50;;
1346;SDS011;667;48.796;9.480;2023-04-15T05:42:05;6.03;;;4.20;;
1346;SDS011;667;48.796;9.480;2023-04-15T05:44:30;4.40;;;4.00;;
1346;SDS011;667;48.796;9.480;2023-04-15T05:46:56;5.70;;;3.60;;
1346;SDS011;667;48.796;9.480;2023-04-15T05:49:22;5.13;;;4.13;;
1346;SDS011;667;48.796;9.480;2023-04-15T05:51:48;4.37;;;3.97;;
1346;SDS011;667;48.796;9.480;2023-04-15T05:54:13;4.47;;;4.03;;
1346;SDS011;667;48.796;9.480;2023-04-15T05:56:39;4.77;;;3.40;;
1346;SDS011;667;48.796;9.480;2023-04-15T05:59:05;5.50;;;3.77;;
1346;SDS011;667;48.796;9.480;2023-04-15T06:01:30;4.67;;;3.43;;
1346;SDS011;667;48.796;9.480;2023-04-15T06:03:57;5.15;;;3.90;;
1346;SDS011;667;48.796;9.480;2023-04-15T06:06:23;7.60;;;5.00;;
1346;SDS011;667;48.796;9.480;2023-04-15T06:08:49;4.93;;;4.15;;
1346;SDS011;667;48.796;9.480;2023-04-15T06:11:14;5.10;;;4.60;;
1346;SDS011;667;48.796;9.480;2023-04-15T06:13:40;7.17;;;4.97;;
1346;SDS011;667;48.796;9.480;2023-04-15T06:16:06;6.00;;;5.13;;
1346;SDS011;667;48.796;9.480;2023-04-15T06:18:31;8.03;;;5.87;;
1346;SDS011;667;48.796;9.480;2023-04-15T06:20:57;5.63;;;5.03;;
1346;SDS011;667;48.796;9.480;2023-04-15T06:23:23;9.40;;;5.50;;
1346;SDS011;667;48.796;9.480;2023-04-15T06:25:48;5.97;;;5.40;;
1346;SDS011;667;48.796;9.480;2023-04-15T06:28:14;6.47;;;5.87;;
1346;SDS011;667;48.796;9.480;2023-04-15T06:30:40;5.50;;;5.00;;
1346;SDS011;667;48.796;9.480;2023-04-15T06:33:05;6.47;;;5.87;;
1346;SDS011;667;48.796;9.480;2023-04-15T06:35:31;7.47;;;5.40;;
1346;SDS011;667;48.796;9.480;2023-04-15T06:37:57;7.83;;;5.43;;
1346;SDS011;667;48.796;9.480;2023-04-15T06:40:22;6.70;;;5.93;;
1346;SDS011;667;48.796;9.480;2023-04-15T06:42:48;5.40;;;4.90;;
1346;SDS011;667;48.796;9.480;2023-04-15T06:45:14;6.30;;;5.70;;
1346;SDS011;667;48.796;9.480;2023-04-15T06:47:39;7.10;;;5.40;;
1346;SDS011;667;48.796;9.480;2023-04-15T06:50:06;9.23;;;6.40;;
1346;SDS011;667;48.796;9.480;2023-04-15T06:52:33;6.10;;;5.60;;
1346;SDS011;667;48.796;9.480;2023-04-15T06:55:00;6.07;;;5.47;;
1346;SDS011;667;48.796;9.480;2023-04-15T06:57:26;7.30;;;5.72;;
1346;SDS011;667;48.796;9.480;2023-04-15T06:59:52;8.10;;;6.43;;
1346;SDS011;667;48.796;9.480;2023-04-15T07:02:18;8.80;;;5.80;;
1346;SDS011;667;48.796;9.480;2023-04-15T07:04:44;6.80;;;5.60;;
1346;SDS011;667;48.796;9.480;2023-04-15T07:07:10;9.43;;;5.70;;
1346;SDS011;667;48.796;9.480;2023-04-15T07:09:36;7.40;;;5.60;;
1346;SDS011;667;48.796;9.480;2023-04-15T07:12:02;6.03;;;5.45;;
1346;SDS011;667;48.796;9.480;2023-04-15T07:14:28;6.60;;;6.00;;
1346;SDS011;667;48.796;9.480;2023-04-15T07:16:54;7.10;;;5.27;;
1346;SDS011;667;48.796;9.480;2023-04-15T07:19:20;7.78;;;5.20;;
1346;SDS011;667;48.796;9.480;2023-04-15T07:21:46;6.20;;;5.60;;
1346;SDS011;667;48.796;9.480;2023-04-15T07:24:12;7.85;;;5.03;;
1346;SDS011;667;48.796;9.480;2023-04-15T07:26:40;6.20;;;5.57;;
1346;SDS011;667;48.796;9.480;2023-04-15T07:29:06;5.67;;;4.60;;
1346;SDS011;667;48.796;9.480;2023-04-15T07:31:32;5.57;;;4.80;;
1346;SDS011;667;48.796;9.480;2023-04-15T07:33:57;6.60;;;5.23;;
1346;SDS011;667;48.796;9.480;2023-04-15T07:36:23;8.20;;;5.35;;
1346;SDS011;667;48.796;9.480;2023-04-15T07:38:49;6.23;;;5.27;;
1346;SDS011;667;48.796;9.480;2023-04-15T07:41:14;11.27;;;8.20;;
1346;SDS011;667;48.796;9.480;2023-04-15T07:43:40;9.23;;;8.00;;
1346;SDS011;667;48.796;9.480;2023-04-15T07:46:06;10.90;;;7.37;;
1346;SDS011;667;48.796;9.480;2023-04-15T07:48:31;11.37;;;8.00;;
1346;SDS011;667;48.796;9.480;2023-04-15T07:50:57;13.47;;;8.70;;
1346;SDS011;667;48.796;9.480;2023-04-15T07:53:23;10.10;;;8.25;;
1346;SDS011;667;48.796;9.480;2023-04-15T07:55:49;9.17;;;7.63;;
1346;SDS011;667;48.796;9.480;2023-04-15T07:58:14;9.60;;;6.43;;
1346;SDS011;667;48.796;9.480;2023-04-15T08:00:40;6.90;;;6.20;;
1346;SDS011;667;48.796;9.480;2023-04-15T08:03:05;11.57;;;7.27;;
1346;SDS011;667;48.796;9.480;2023-04-15T08:05:31;7.90;;;5.57;;
1346;SDS011;667;48.796;9.480;2023-04-15T08:07:57;9.03;;;6.30;;
1346;SDS011;667;48.796;9.480;2023-04-15T08:10:22;6.13;;;4.90;;
1346;SDS011;667;48.796;9.480;2023-04-15T08:12:48;7.63;;;5.53;;
1346;SDS011;667;48.796;9.480;2023-04-15T08:15:14;8.52;;;5.53;;
1346;SDS011;667;48.796;9.480;2023-04-15T08:17:40;6.15;;;4.90;;
1346;SDS011;667;48.796;9.480;2023-04-15T08:20:07;8.20;;;5.90;;
1346;SDS011;667;48.796;9.480;2023-04-15T08:22:34;6.55;;;4.65;;
1346;SDS011;667;48.796;9.480;2023-04-15T08:24:59;5.57;;;4.50;;
1346;SDS011;667;48.796;9.480;2023-04-15T08:27:25;6.80;;;4.43;;
1346;SDS011;667;48.796;9.480;2023-04-15T08:29:51;8.33;;;4.47;;
1346;SDS011;667;48.796;9.480;2023-04-15T08:32:16;5.53;;;4.03;;
1346;SDS011;667;48.796;9.480;2023-04-15T08:34:43;4.43;;;4.03;;
1346;SDS011;667;48.796;9.480;2023-04-15T08:37:08;6.93;;;4.40;;
1346;SDS011;667;48.796;9.480;2023-04-15T08:39:34;3.97;;;3.33;;
1346;SDS011;667;48.796;9.480;2023-04-15T08:42:00;3.50;;;3.20;;
1346;SDS011;667;48.796;9.480;2023-04-15T08:44:28;7.10;;;3.85;;
1346;SDS011;667;48.796;9.480;2023-04-15T08:47:00;6.40;;;3.65;;
1346;SDS011;667;48.796;9.480;2023-04-15T08:49:26;5.05;;;2.90;;
1346;SDS011;667;48.796;9.480;2023-04-15T08:51:54;5.35;;;3.20;;
1346;SDS011;667;48.796;9.480;2023-04-15T08:54:22;4.07;;;3.25;;
1346;SDS011;667;48.796;9.480;2023-04-15T08:56:48;6.57;;;3.50;;
1346;SDS011;667;48.796;9.480;2023-04-15T08:59:14;5.25;;;3.97;;
1346;SDS011;667;48.796;9.480;2023-04-15T09:01:40;6.07;;;4.00;;
1346;SDS011;667;48.796;9.480;2023-04-15T09:04:06;3.00;;;2.60;;
1346;SDS011;667;48.796;9.480;2023-04-15T09:06:32;5.07;;;3.10;;
1346;SDS011;667;48.796;9.480;2023-04-15T09:08:58;4.30;;;3.17;;
1346;SDS011;667;48.796;9.480;2023-04-15T09:11:23;6.67;;;3.23;;
1346;SDS011;667;48.796;9.480;2023-04-15T09:13:49;4.57;;;3.00;;
1346;SDS011;667;48.796;9.480;2023-04-15T09:16:15;3.77;;;3.03;;
1346;SDS011;667;48.796;9.480;2023-04-15T09:18:42;8.30;;;5.30;;
1346;SDS011;667;48.796;9.480;2023-04-15T09:23:35;4.53;;;3.97;;
1346;SDS011;667;48.796;9.480;2023-04-15T09:26:03;4.68;;;3.22;;
1346;SDS011;667;48.796;9.480;2023-04-15T09:28:29;6.30;;;4.40;;
1346;SDS011;667;48.796;9.480;2023-04-15T09:30:58;6.97;;;3.00;;
1346;SDS011;667;48.796;9.480;2023-04-15T09:33:25;3.85;;;3.22;;
1346;SDS011;667;48.796;9.480;2023-04-15T09:35:55;5.75;;;2.83;;
1346;SDS011;667;48.796;9.480;2023-04-15T09:38:26;4.82;;;3.65;;
1346;SDS011;667;48.796;9.480;2023-04-15T09:40:52;6.13;;;2.93;;
1346;SDS011;667;48.796;9.480;2023-04-15T09:43:17;4.07;;;3.20;;
1346;SDS011;667;48.796;9.480;2023-04-15T09:45:47;5.13;;;3.30;;
1346;SDS011;667;48.796;9.480;2023-04-15T09:50:48;3.17;;;2.90;;
1346;SDS011;667;48.796;9.480;2023-04-15T09:53:18;5.07;;;3.47;;
1346;SDS011;667;48.796;9.480;2023-04-15T09:55:45;3.83;;;3.10;;
1346;SDS011;667;48.796;9.480;2023-04-15T09:58:33;2.97;;;2.77;;
1346;SDS011;667;48.796;9.480;2023-04-15T10:01:03;3.97;;;2.70;;
1346;SDS011;667;48.796;9.480;2023-04-15T10:03:31;3.10;;;2.60;;
1346;SDS011;667;48.796;9.480;2023-04-15T10:06:00;3.70;;;2.97;;
1346;SDS011;667;48.796;9.480;2023-04-15T10:08:26;4.07;;;2.93;;
1346;SDS011;667;48.796;9.480;2023-04-15T10:10:53;3.10;;;2.80;;
1346;SDS011;667;48.796;9.480;2023-04-15T10:13:21;4.03;;;3.10;;
1346;SDS011;667;48.796;9.480;2023-04-15T10:16:10;4.60;;;3.40;;
1346;SDS011;667;48.796;9.480;2023-04-15T10:18:45;4.57;;;3.17;;
1346;SDS011;667;48.796;9.480;2023-04-15T10:21:12;3.47;;;2.80;;
1346;SDS011;667;48.796;9.480;2023-04-15T10:23:42;4.33;;;3.43;;
1346;SDS011;667;48.796;9.480;2023-04-15T10:26:11;5.20;;;3.40;;
1346;SDS011;667;48.796;9.480;2023-04-15T10:28:38;4.20;;;3.80;;
1346;SDS011;667;48.796;9.480;2023-04-15T10:31:04;5.00;;;3.37;;
1346;SDS011;667;48.796;9.480;2023-04-15T10:33:31;3.63;;;3.33;;
1346;SDS011;667;48.796;9.480;2023-04-15T10:35:57;4.60;;;3.30;;
1346;SDS011;667;48.796;9.480;2023-04-15T10:38:34;4.90;;;3.20;;
1346;SDS011;667;48.796;9.480;2023-04-15T10:41:11;4.53;;;3.47;;
1346;SDS011;667;48.796;9.480;2023-04-15T10:43:44;5.07;;;3.77;;
1346;SDS011;667;48.796;9.480;2023-04-15T10:46:18;4.73;;;3.53;;
1346;SDS011;667;48.796;9.480;2023-04-15T10:48:49;4.70;;;4.30;;
1346;SDS011;667;48.796;9.480;2023-04-15T10:51:20;5.17;;;3.90;;
1346;SDS011;667;48.796;9.480;2023-04-15T10:53:55;3.90;;;3.50;;
1346;SDS011;667;48.796;9.480;2023-04-15T10:56:22;4.87;;;4.10;;
1346;SDS011;667;48.796;9.480;2023-04-15T10:58:48;4.67;;;3.53;;
1346;SDS011;667;48.796;9.480;2023-04-15T11:01:13;4.10;;;3.47;;
1346;SDS011;667;48.796;9.480;2023-04-15T11:03:40;5.47;;;4.33;;
1346;SDS011;667;48.796;9.480;2023-04-15T11:06:07;6.30;;;4.30;;
1346;SDS011;667;48.796;9.480;2023-04-15T11:08:52;4.80;;;4.30;;
1346;SDS011;667;48.796;9.480;2023-04-15T11:11:20;5.50;;;4.23;;
1346;SDS011;667;48.796;9.480;2023-04-15T11:13:49;5.10;;;3.70;;
1346;SDS011;667;48.796;9.480;2023-04-15T11:16:16;6.43;;;4.60;;
1346;SDS011;667;48.796;9.480;2023-04-15T11:18:42;4.60;;;4.10;;
1346;SDS011;667;48.796;9.480;2023-04-15T11:21:19;4.90;;;4.47;;
1346;SDS011;667;48.796;9.480;2023-04-15T11:23:50;4.70;;;4.13;;
1346;SDS011;667;48.796;9.480;2023-04-15T11:26:15;5.20;;;4.50;;
1346;SDS011;667;48.796;9.480;2023-04-15T11:28:42;6.20;;;4.53;;
1346;SDS011;667;48.796;9.480;2023-04-15T11:33:57;6.47;;;4.70;;
1346;SDS011;667;48.796;9.480;2023-04-15T11:36:26;9.77;;;5.00;;
1346;SDS011;667;48.796;9.480;2023-04-15T11:38:52;7.40;;;4.37;;
1346;SDS011;667;48.796;9.480;2023-04-15T11:41:21;5.40;;;4.40;;
1346;SDS011;667;48.796;9.480;2023-04-15T11:43:47;4.93;;;4.43;;
1346;SDS011;667;48.796;9.480;2023-04-15T11:46:14;4.20;;;3.87;;
1346;SDS011;667;48.796;9.480;2023-04-15T11:48:41;4.20;;;3.80;;
1346;SDS011;667;48.796;9.480;2023-04-15T11:51:08;5.40;;;4.70;;
1346;SDS011;667;48.796;9.480;2023-04-15T11:56:01;4.47;;;3.90;;
1346;SDS011;667;48.796;9.480;2023-04-15T11:58:28;7.40;;;4.77;;
1346;SDS011;667;48.796;9.480;2023-04-15T12:00:55;5.53;;;3.97;;
1346;SDS011;667;48.796;9.480;2023-04-15T12:11:34;6.53;;;4.90;;
1346;SDS011;667;48.796;9.480;2023-04-15T12:14:03;4.07;;;3.67;;
1346;SDS011;667;48.796;9.480;2023-04-15T12:16:28;5.33;;;4.83;;
1346;SDS011;667;48.796;9.480;2023-04-15T12:18:58;4.83;;;4.17;;
1346;SDS011;667;48.796;9.480;2023-04-15T12:21:32;6.17;;;4.27;;
1346;SDS011;667;48.796;9.480;2023-04-15T12:24:00;5.90;;;4.20;;
1346;SDS011;667;48.796;9.480;2023-04-15T12:26:42;3.93;;;3.60;;
1346;SDS011;667;48.796;9.480;2023-04-15T12:29:16;4.67;;;4.27;;
1346;SDS011;667;48.796;9.480;2023-04-15T12:31:46;5.03;;;4.10;;
1346;SDS011;667;48.796;9.480;2023-04-15T12:34:13;6.83;;;4.20;;
1346;SDS011;667;48.796;9.480;2023-04-15T12:36:39;5.33;;;4.70;;
1346;SDS011;667;48.796;9.480;2023-04-15T12:39:05;5.13;;;4.17;;
1346;SDS011;667;48.796;9.480;2023-04-15T12:41:31;4.80;;;3.97;;
1346;SDS011;667;48.796;9.480;2023-04-15T12:43:57;4.50;;;3.90;;
1346;SDS011;667;48.796;9.480;2023-04-15T12:46:23;4.47;;;4.07;;
1346;SDS011;667;48.796;9.480;2023-04-15T12:48:49;4.80;;;3.77;;
1346;SDS011;667;48.796;9.480;2023-04-15T12:51:17;4.27;;;3.63;;
1346;SDS011;667;48.796;9.480;2023-04-15T12:53:43;4.00;;;3.60;;
1346;SDS011;667;48.796;9.480;2023-04-15T12:56:08;3.90;;;3.50;;
1346;SDS011;667;48.796;9.480;2023-04-15T12:58:34;4.10;;;3.30;;
1346;SDS011;667;48.796;9.480;2023-04-15T13:01:00;3.13;;;2.70;;
1346;SDS011;667;48.796;9.480;2023-04-15T13:03:26;3.50;;;3.20;;
1346;SDS011;667;48.796;9.480;2023-04-15T13:05:51;4.57;;;3.43;;
1346;SDS011;667;48.796;9.480;2023-04-15T13:08:17;3.70;;;2.97;;
1346;SDS011;667;48.796;9.480;2023-04-15T13:10:42;4.70;;;3.13;;
1346;SDS011;667;48.796;9.480;2023-04-15T13:13:08;4.10;;;2.93;;
1346;SDS011;667;48.796;9.480;2023-04-15T13:15:34;4.33;;;3.13;;
1346;SDS011;667;48.796;9.480;2023-04-15T13:18:00;2.90;;;2.60;;
1346;SDS011;667;48.796;9.480;2023-04-15T13:20:26;2.20;;;2.00;;
1346;SDS011;667;48.796;9.480;2023-04-15T13:22:52;2.95;;;2.10;;
1346;SDS011;667;48.796;9.480;2023-04-15T13:25:18;3.28;;;2.20;;
1346;SDS011;667;48.796;9.480;2023-04-15T13:27:44;2.42;;;2.20;;
1346;SDS011;667;48.796;9.480;2023-04-15T13:30:09;2.87;;;2.27;;
1346;SDS011;667;48.796;9.480;2023-04-15T13:32:35;2.92;;;2.22;;
1346;SDS011;667;48.796;9.480;2023-04-15T13:35:01;2.33;;;1.83;;
1346;SDS011;667;48.796;9.480;2023-04-15T13:37:27;3.83;;;1.93;;
1346;SDS011;667;48.796;9.480;2023-04-15T13:39:54;2.90;;;2.50;;
1346;SDS011;667;48.796;9.480;2023-04-15T13:42:20;2.72;;;2.05;;
1346;SDS011;667;48.796;9.480;2023-04-15T13:44:47;2.35;;;2.15;;
1346;SDS011;667;48.796;9.480;2023-04-15T13:47:14;2.40;;;1.80;;
1346;SDS011;667;48.796;9.480;2023-04-15T13:49:40;1.77;;;1.67;;
1346;SDS011;667;48.796;9.480;2023-04-15T13:52:06;1.73;;;1.50;;
1346;SDS011;667;48.796;9.480;2023-04-15T13:54:31;2.10;;;1.83;;
1346;SDS011;667;48.796;9.480;2023-04-15T13:56:57;1.60;;;1.50;;
1346;SDS011;667;48.796;9.480;2023-04-15T13:59:22;1.60;;;1.47;;
1346;SDS011;667;48.796;9.480;2023-04-15T14:01:48;1.80;;;1.37;;
1346;SDS011;667;48.796;9.480;2023-04-15T14:04:14;2.50;;;2.03;;
1346;SDS011;667;48.796;9.480;2023-04-15T14:06:39;4.20;;;2.30;;
1346;SDS011;667;48.796;9.480;2023-04-15T14:09:05;2.40;;;2.20;;
1346;SDS011;667;48.796;9.480;2023-04-15T14:11:30;2.40;;;1.33;;
1346;SDS011;667;48.796;9.480;2023-04-15T14:13:56;1.60;;;1.43;;
1346;SDS011;667;48.796;9.480;2023-04-15T14:16:22;1.80;;;1.30;;
1346;SDS011;667;48.796;9.480;2023-04-15T14:18:47;4.13;;;2.17;;
1346;SDS011;667;48.796;9.480;2023-04-15T14:21:13;2.30;;;1.50;;
1346;SDS011;667;48.796;9.480;2023-04-15T14:23:39;2.47;;;1.80;;
1346;SDS011;667;48.796;9.480;2023-04-15T14:26:05;1.40;;;1.30;;
1346;SDS011;667;48.796;9.480;2023-04-15T14:28:30;1.80;;;1.37;;
1346;SDS011;667;48.796;9.480;2023-04-15T14:30:56;1.50;;;1.40;;
1346;SDS011;667;48.796;9.480;2023-04-15T14:33:21;9.97;;;6.87;;
1346;SDS011;667;48.796;9.480;2023-04-15T14:35:48;4.60;;;4.20;;
1346;SDS011;667;48.796;9.480;2023-04-15T14:38:14;3.60;;;3.30;;
1346;SDS011;667;48.796;9.480;2023-04-15T14:40:39;3.03;;;2.80;;
1346;SDS011;667;48.796;9.480;2023-04-15T14:43:05;2.33;;;2.13;;
1346;SDS011;667;48.796;9.480;2023-04-15T14:45:31;3.40;;;1.70;;
1346;SDS011;667;48.796;9.480;2023-04-15T14:47:57;1.70;;;1.60;;
1346;SDS011;667;48.796;9.480;2023-04-15T14:50:23;2.60;;;2.05;;
1346;SDS011;667;48.796;9.480;2023-04-15T14:52:49;2.00;;;1.80;;
1346;SDS011;667;48.796;9.480;2023-04-15T14:55:15;2.90;;;1.70;;
1346;SDS011;667;48.796;9.480;2023-04-15T14:57:41;3.27;;;1.87;;
1346;SDS011;667;48.796;9.480;2023-04-15T15:00:07;1.60;;;1.50;;
1346;SDS011;667;48.796;9.480;2023-04-15T15:02:35;1.70;;;1.60;;
1346;SDS011;667;48.796;9.480;2023-04-15T15:05:02;1.63;;;1.50;;
1346;SDS011;667;48.796;9.480;2023-04-15T15:07:27;2.60;;;1.90;;
1346;SDS011;667;48.796;9.480;2023-04-15T15:09:53;2.00;;;1.90;;
1346;SDS011;667;48.796;9.480;2023-04-15T15:12:19;2.38;;;2.03;;
1346;SDS011;667;48.796;9.480;2023-04-15T15:14:46;2.28;;;1.98;;
1346;SDS011;667;48.796;9.480;2023-04-15T15:17:12;2.10;;;1.90;;
1346;SDS011;667;48.796;9.480;2023-04-15T15:19:38;2.50;;;2.30;;
1346;SDS011;667;48.796;9.480;2023-04-15T15:22:04;2.87;;;2.13;;
1346;SDS011;667;48.796;9.480;2023-04-15T15:24:29;2.50;;;1.90;;
1346;SDS011;667;48.796;9.480;2023-04-15T15:26:55;3.03;;;2.83;;
1346;SDS011;667;48.796;9.480;2023-04-15T15:29:21;3.17;;;2.83;;
1346;SDS011;667;48.796;9.480;2023-04-15T15:31:47;2.73;;;2.50;;
1346;SDS011;667;48.796;9.480;2023-04-15T15:34:12;3.53;;;2.83;;
1346;SDS011;667;48.796;9.480;2023-04-15T15:36:38;3.00;;;2.13;;
1346;SDS011;667;48.796;9.480;2023-04-15T15:39:03;2.43;;;2.20;;
1346;SDS011;667;48.796;9.480;2023-04-15T15:41:29;3.07;;;2.30;;
1346;SDS011;667;48.796;9.480;2023-04-15T15:43:57;3.47;;;2.38;;